createdAt,value
2023-04-19T00:00:20.583Z,71.37
2023-04-19T00:02:52.267Z,72.45
2023-04-19T00:05:25.014Z,73.04
2023-04-19T00:07:59.733Z,73.44
2023-04-19T00:10:31.251Z,73.95
2023-04-19T00:13:02.693Z,73.68
2023-04-19T00:15:35.507Z,73.60
2023-04-19T00:18:08.851Z,74.20
2023-04-19T00:20:41.514Z,74.58
2023-04-19T00:23:15.660Z,75.19
2023-04-19T00:25:50.322Z,75.52
2023-04-19T00:28:20.239Z,75.66
2023-04-19T00:30:52.105Z,76.84
2023-04-19T00:33:25.925Z,77.31
2023-04-19T00:35:57.304Z,77.66
2023-04-19T00:38:28.921Z,78.26
2023-04-19T00:41:00.840Z,78.56
2023-04-19T00:43:32.335Z,80.00
2023-04-19T00:46:04.130Z,80.17
2023-04-19T00:48:36.436Z,81.45
2023-04-19T00:51:08.365Z,81.75
2023-04-19T00:53:40.680Z,82.98
2023-04-19T00:56:23.963Z,83.25
2023-04-19T00:58:57.951Z,82.99
2023-04-19T01:01:29.525Z,82.52
2023-04-19T01:04:02.046Z,83.44
2023-04-19T01:06:36.181Z,83.57
2023-04-19T01:09:10.816Z,83.37
2023-04-19T01:11:42.529Z,83.53
2023-04-19T01:14:15.526Z,83.76
2023-04-19T01:16:48.334Z,83.89
2023-04-19T01:19:19.827Z,84.41
2023-04-19T01:21:53.938Z,84.81
2023-04-19T01:24:25.688Z,84.36
2023-04-19T01:26:59.412Z,83.91
2023-04-19T01:29:32.439Z,84.00
2023-04-19T01:32:04.063Z,84.57
2023-04-19T01:34:38.518Z,84.40
2023-04-19T01:37:10.282Z,85.18
2023-04-19T01:39:43.249Z,85.37
2023-04-19T01:42:14.911Z,85.37
2023-04-19T01:44:48.512Z,84.85
2023-04-19T01:47:19.974Z,84.89
2023-04-19T01:49:52.859Z,84.72
2023-04-19T01:52:24.406Z,84.88
2023-04-19T01:54:56.028Z,84.56
2023-04-19T01:57:27.804Z,83.76
2023-04-19T02:00:01.291Z,83.02
2023-04-19T02:02:32.896Z,83.36
2023-04-19T02:05:04.302Z,83.97
2023-04-19T02:07:37.908Z,83.44
2023-04-19T02:10:15.881Z,83.88
2023-04-19T02:12:47.519Z,83.91
2023-04-19T02:15:19.197Z,84.28
2023-04-19T02:17:50.937Z,84.12
2023-04-19T02:20:24.284Z,84.63
2023-04-19T02:22:55.810Z,84.77
2023-04-19T02:25:27.464Z,85.15
2023-04-19T02:28:01.605Z,84.99
2023-04-19T02:30:33.233Z,84.70
2023-04-19T02:33:04.742Z,84.98
2023-04-19T02:35:36.501Z,84.50
2023-04-19T02:38:08.178Z,84.57
2023-04-19T02:40:39.714Z,84.55
2023-04-19T02:43:11.676Z,84.69
2023-04-19T02:45:43.265Z,84.72
2023-04-19T02:48:16.692Z,85.38
2023-04-19T02:50:49.517Z,85.01
2023-04-19T02:53:21.664Z,85.62
2023-04-19T02:55:53.268Z,84.97
2023-04-19T02:58:24.834Z,84.85
2023-04-19T03:00:56.584Z,84.58
2023-04-19T03:03:28.995Z,85.27
2023-04-19T03:06:01.375Z,85.16
2023-04-19T03:08:33.586Z,85.59
2023-04-19T03:11:05.142Z,85.59
2023-04-19T03:13:40.048Z,85.27
2023-04-19T03:16:21.020Z,85.48
2023-04-19T03:18:52.632Z,85.51
2023-04-19T03:21:27.499Z,85.57
2023-04-19T03:23:57.316Z,85.72
2023-04-19T03:26:31.954Z,85.30
2023-04-19T03:29:07.231Z,85.29
2023-04-19T03:31:39.645Z,85.29
2023-04-19T03:34:11.163Z,85.18
2023-04-19T03:36:43.432Z,85.04
2023-04-19T03:39:14.820Z,84.70
2023-04-19T03:41:46.372Z,84.32
2023-04-19T03:44:30.705Z,83.89
2023-04-19T03:47:13.100Z,83.50
2023-04-19T03:49:55.929Z,83.88
2023-04-19T03:52:39.231Z,83.62
2023-04-19T03:55:23.247Z,83.02
2023-04-19T03:58:07.583Z,83.24
2023-04-19T04:00:55.165Z,82.93
2023-04-19T04:03:37.689Z,83.08
2023-04-19T04:06:14.222Z,82.87
2023-04-19T04:08:48.923Z,82.97
2023-04-19T04:11:18.813Z,83.10
2023-04-19T04:13:51.992Z,83.60
2023-04-19T04:16:23.855Z,82.89
2023-04-19T04:18:58.002Z,82.54
2023-04-19T04:21:30.200Z,82.65
2023-04-19T04:24:04.082Z,82.85
2023-04-19T04:26:40.859Z,82.49
2023-04-19T04:29:13.868Z,82.39
2023-04-19T04:31:46.097Z,82.26
2023-04-19T04:34:18.133Z,81.54
2023-04-19T04:36:52.146Z,81.52
2023-04-19T04:39:24.293Z,81.98
2023-04-19T04:41:57.939Z,81.75
2023-04-19T04:44:29.403Z,81.42
2023-04-19T04:47:00.878Z,81.75
2023-04-19T04:49:32.371Z,82.42
2023-04-19T04:52:04.025Z,82.51
2023-04-19T04:54:35.394Z,82.31
2023-04-19T04:57:07.002Z,81.69
2023-04-19T04:59:40.222Z,81.82
2023-04-19T05:02:13.109Z,82.33
2023-04-19T05:04:44.832Z,82.44
2023-04-19T05:07:16.330Z,82.51
2023-04-19T05:09:47.904Z,82.68
2023-04-19T05:12:20.936Z,82.67
2023-04-19T05:14:53.673Z,82.91
2023-04-19T05:17:25.513Z,83.26
2023-04-19T05:19:58.187Z,83.67
2023-04-19T05:22:30.780Z,83.58
2023-04-19T05:25:04.583Z,83.43
2023-04-19T05:27:44.779Z,83.21
2023-04-19T05:30:19.495Z,83.10
2023-04-19T05:32:49.261Z,83.24
2023-04-19T05:35:22.123Z,82.60
2023-04-19T05:37:54.295Z,82.62
2023-04-19T05:40:26.735Z,82.56
2023-04-19T05:42:58.837Z,82.73
2023-04-19T05:45:32.924Z,83.04
2023-04-19T05:48:11.221Z,83.11
2023-04-19T05:50:45.474Z,83.11
2023-04-19T05:53:17.404Z,83.08
2023-04-19T05:55:51.210Z,83.29
2023-04-19T05:58:23.652Z,83.49
2023-04-19T06:00:56.253Z,83.03
2023-04-19T06:03:31.062Z,82.44
2023-04-19T06:06:04.110Z,81.84
2023-04-19T06:08:35.935Z,81.59
2023-04-19T06:11:15.843Z,81.92
2023-04-19T06:13:54.891Z,81.60
2023-04-19T06:16:27.893Z,81.89
2023-04-19T06:18:59.849Z,82.40
2023-04-19T06:21:33.389Z,82.60
2023-04-19T06:24:05.347Z,83.19
2023-04-19T06:26:37.156Z,83.38
2023-04-19T06:29:08.762Z,83.01
2023-04-19T06:31:40.310Z,82.84
2023-04-19T06:34:12.616Z,82.28
2023-04-19T06:36:44.248Z,82.50
2023-04-19T06:39:16.520Z,82.36
2023-04-19T06:41:48.007Z,82.99
2023-04-19T06:44:19.989Z,83.16
2023-04-19T06:46:53.452Z,83.06
2023-04-19T06:49:24.917Z,83.26
2023-04-19T06:51:56.916Z,83.76
2023-04-19T06:54:28.745Z,83.57
2023-04-19T06:57:01.170Z,83.33
2023-04-19T06:59:33.881Z,83.08
2023-04-19T07:02:05.442Z,83.32
2023-04-19T07:04:37.524Z,83.25
2023-04-19T07:07:09.365Z,83.60
2023-04-19T07:09:41.776Z,84.04
2023-04-19T07:12:13.760Z,84.09
2023-04-19T07:14:46.192Z,83.89
2023-04-19T07:17:21.828Z,83.39
2023-04-19T07:19:53.725Z,82.33
2023-04-19T07:22:25.805Z,82.57
2023-04-19T07:24:58.884Z,82.92
2023-04-19T07:27:30.665Z,83.31
2023-04-19T07:30:02.267Z,83.15
2023-04-19T07:32:34.017Z,83.00
2023-04-19T07:35:06.500Z,82.44
2023-04-19T07:37:38.488Z,81.38
2023-04-19T07:40:12.569Z,81.10
2023-04-19T07:42:47.056Z,81.15
2023-04-19T07:45:19.225Z,81.50
2023-04-19T07:47:51.073Z,81.37
2023-04-19T07:50:26.952Z,81.32
2023-04-19T07:53:02.603Z,81.19
2023-04-19T07:55:36.199Z,81.60
2023-04-19T07:58:09.573Z,81.33
2023-04-19T08:00:44.540Z,82.00
2023-04-19T08:03:17.769Z,81.82
2023-04-19T08:05:57.180Z,81.76
2023-04-19T08:08:30.693Z,81.60
2023-04-19T08:11:05.828Z,81.27
2023-04-19T08:13:48.597Z,80.74
2023-04-19T08:17:09.055Z,81.05
2023-04-19T08:19:21.576Z,80.99
2023-04-19T08:22:04.380Z,80.59
2023-04-19T08:24:38.194Z,80.76
2023-04-19T08:27:11.716Z,80.81
2023-04-19T08:29:44.695Z,80.34
2023-04-19T08:32:20.118Z,80.56
2023-04-19T08:35:21.256Z,80.13
2023-04-19T08:38:02.048Z,79.97
2023-04-19T08:40:54.533Z,79.35
2023-04-19T08:43:34.304Z,78.95
2023-04-19T08:46:10.377Z,79.30
2023-04-19T08:48:50.320Z,79.20
2023-04-19T08:51:29.117Z,79.07
2023-04-19T08:54:06.611Z,79.51
2023-04-19T08:56:47.337Z,79.36
2023-04-19T08:59:21.242Z,79.14
2023-04-19T09:01:56.524Z,79.02
2023-04-19T09:04:37.003Z,79.63
2023-04-19T09:07:25.331Z,79.96
2023-04-19T09:10:12.210Z,80.32
2023-04-19T09:12:45.636Z,79.71
2023-04-19T09:15:38.822Z,79.72
2023-04-19T09:18:13.245Z,79.62
2023-04-19T09:20:47.027Z,79.74
2023-04-19T09:23:21.878Z,79.81
2023-04-19T09:28:34.921Z,79.44
2023-04-19T09:33:59.085Z,80.30
2023-04-19T09:36:36.676Z,79.55
2023-04-19T09:39:10.370Z,79.57
2023-04-19T09:41:57.164Z,79.52
2023-04-19T09:45:02.214Z,80.07
2023-04-19T09:47:31.097Z,80.00
2023-04-19T09:50:22.771Z,80.29
2023-04-19T09:52:59.958Z,79.68
2023-04-19T09:55:41.278Z,79.70
2023-04-19T09:58:25.066Z,79.46
2023-04-19T10:01:13.310Z,79.38
2023-04-19T10:03:52.158Z,79.29
2023-04-19T10:06:45.897Z,78.70
2023-04-19T10:09:19.795Z,78.66
2023-04-19T10:12:00.481Z,78.64
2023-04-19T10:14:41.407Z,79.24
2023-04-19T10:17:14.535Z,79.55
2023-04-19T10:19:50.130Z,79.59
2023-04-19T10:22:24.522Z,78.88
2023-04-19T10:25:18.122Z,79.23
2023-04-19T10:27:52.197Z,79.44
2023-04-19T10:30:27.722Z,79.49
2023-04-19T10:33:04.921Z,79.52
2023-04-19T10:35:41.891Z,79.71
2023-04-19T10:38:17.148Z,79.94
2023-04-19T10:41:06.380Z,80.00
2023-04-19T10:43:39.807Z,79.48
2023-04-19T10:46:20.660Z,78.97
2023-04-19T10:49:00.204Z,79.31
2023-04-19T10:51:36.130Z,79.78
2023-04-19T10:54:12.922Z,80.01
2023-04-19T10:57:14.135Z,80.24
2023-04-19T10:59:47.101Z,80.22
2023-04-19T11:02:35.224Z,79.08
2023-04-19T11:05:09.157Z,79.03
2023-04-19T11:07:45.851Z,78.76
2023-04-19T11:10:32.356Z,78.38
2023-04-19T11:13:05.500Z,78.37
2023-04-19T11:15:45.054Z,78.72
2023-04-19T11:18:24.578Z,78.57
2023-04-19T11:20:58.525Z,78.70
2023-04-19T11:23:31.734Z,78.86
2023-04-19T11:26:04.443Z,78.79
2023-04-19T11:28:39.162Z,78.48
2023-04-19T11:31:13.431Z,78.71
2023-04-19T11:33:49.159Z,78.71
2023-04-19T11:36:24.205Z,78.45
2023-04-19T11:39:08.533Z,78.31
2023-04-19T11:41:43.644Z,78.56
2023-04-19T11:44:21.714Z,78.08
2023-04-19T11:47:05.654Z,78.02
2023-04-19T11:49:38.615Z,78.08
2023-04-19T11:52:13.960Z,78.02
2023-04-19T11:54:47.812Z,77.89
2023-04-19T11:57:32.379Z,77.43
2023-04-19T12:00:11.513Z,77.34
2023-04-19T12:02:46.949Z,77.32
2023-04-19T12:05:20.323Z,77.73
2023-04-19T12:08:12.598Z,78.01
2023-04-19T12:10:59.891Z,78.22
2023-04-19T12:13:33.339Z,78.22
2023-04-19T12:16:07.889Z,78.37
2023-04-19T12:18:54.061Z,78.12
2023-04-19T12:21:32.612Z,77.93
2023-04-19T12:24:06.944Z,78.19
2023-04-19T12:26:56.320Z,78.82
2023-04-19T12:29:29.806Z,78.37
2023-04-19T12:32:02.380Z,78.00
2023-04-19T12:34:35.569Z,78.33
2023-04-19T12:37:08.193Z,78.38
2023-04-19T12:39:40.931Z,78.47
2023-04-19T12:42:13.979Z,78.87
2023-04-19T12:44:46.847Z,78.89
2023-04-19T12:47:22.282Z,78.38
2023-04-19T12:49:56.614Z,78.53
2023-04-19T12:52:31.806Z,78.71
2023-04-19T12:55:05.235Z,78.79
2023-04-19T12:57:38.679Z,78.85
2023-04-19T13:00:14.037Z,78.69
2023-04-19T13:02:49.309Z,78.84
2023-04-19T13:05:21.684Z,78.84
2023-04-19T13:07:54.525Z,78.72
2023-04-19T13:10:28.930Z,79.15
2023-04-19T13:13:01.692Z,79.06
2023-04-19T13:15:34.246Z,78.84
2023-04-19T13:18:06.109Z,78.66
2023-04-19T13:20:37.832Z,78.31
2023-04-19T13:23:10.046Z,78.60
2023-04-19T13:25:41.849Z,78.66
2023-04-19T13:28:14.523Z,78.33
2023-04-19T13:30:49.596Z,78.26
2023-04-19T13:33:21.485Z,77.83
2023-04-19T13:35:55.564Z,77.68
2023-04-19T13:38:28.282Z,77.58
2023-04-19T13:41:00.442Z,77.98
2023-04-19T13:43:32.951Z,78.15
2023-04-19T13:46:05.059Z,78.02
2023-04-19T13:48:40.773Z,78.15
2023-04-19T13:51:14.503Z,78.39
2023-04-19T13:53:46.512Z,78.39
2023-04-19T13:56:20.076Z,77.41
2023-04-19T13:58:51.743Z,77.44
2023-04-19T14:01:23.543Z,77.44
2023-04-19T14:03:56.606Z,77.44
2023-04-19T14:06:28.522Z,77.30
2023-04-19T14:09:00.740Z,77.23
2023-04-19T14:11:34.940Z,77.65
2023-04-19T14:14:15.813Z,77.06
2023-04-19T14:16:51.075Z,77.22
2023-04-19T14:19:24.707Z,77.18
2023-04-19T14:22:02.073Z,77.36
2023-04-19T14:24:33.962Z,77.78
2023-04-19T14:27:10.205Z,77.98
2023-04-19T14:29:46.529Z,77.47
2023-04-19T14:32:26.551Z,77.23
2023-04-19T14:34:59.098Z,77.24
2023-04-19T14:37:35.337Z,77.07
2023-04-19T14:40:10.958Z,77.26
2023-04-19T14:42:49.154Z,76.98
2023-04-19T14:45:30.835Z,77.02
2023-04-19T14:48:05.609Z,77.29
2023-04-19T14:50:43.089Z,77.54
2023-04-19T14:53:19.559Z,77.17
2023-04-19T14:55:54.008Z,76.59
2023-04-19T14:58:25.734Z,76.13
2023-04-19T15:01:00.099Z,76.50
2023-04-19T15:03:31.905Z,76.52
2023-04-19T15:06:04.061Z,76.62
2023-04-19T15:08:35.850Z,76.40
2023-04-19T15:11:07.873Z,76.63
2023-04-19T15:13:42.365Z,76.35
2023-04-19T15:16:14.059Z,76.56
2023-04-19T15:18:53.572Z,76.70
2023-04-19T15:21:29.859Z,76.18
2023-04-19T15:24:01.707Z,76.28
2023-04-19T15:26:43.629Z,76.05
2023-04-19T15:29:16.250Z,76.67
2023-04-19T15:31:48.274Z,76.75
2023-04-19T15:34:20.380Z,76.72
2023-04-19T15:36:52.176Z,76.95
2023-04-19T15:39:26.007Z,77.21
2023-04-19T15:42:00.517Z,77.32
2023-04-19T15:44:32.501Z,77.27
2023-04-19T15:47:05.128Z,77.12
2023-04-19T15:49:37.189Z,77.33
2023-04-19T15:52:09.962Z,76.84
2023-04-19T15:54:42.073Z,77.19
2023-04-19T15:57:18.235Z,76.86
2023-04-19T15:59:52.272Z,76.47
2023-04-19T16:02:38.147Z,76.92
2023-04-19T16:05:47.738Z,76.78
2023-04-19T16:08:25.591Z,76.58
2023-04-19T16:10:59.293Z,76.72
2023-04-19T16:13:39.128Z,76.72
2023-04-19T16:16:10.940Z,76.80
2023-04-19T16:18:48.594Z,76.92
2023-04-19T16:21:37.638Z,76.91
2023-04-19T16:24:10.361Z,77.00
2023-04-19T16:26:42.680Z,76.90
2023-04-19T16:29:14.742Z,76.88
2023-04-19T16:31:46.645Z,77.26
2023-04-19T16:34:19.377Z,76.89
2023-04-19T16:36:51.218Z,77.20
2023-04-19T16:39:24.324Z,76.95
2023-04-19T16:41:59.668Z,77.01
2023-04-19T16:44:36.923Z,77.27
2023-04-19T16:47:14.404Z,76.97
2023-04-19T16:49:48.321Z,76.99
2023-04-19T16:52:20.307Z,77.19
2023-04-19T16:54:52.102Z,77.33
2023-04-19T16:57:25.201Z,77.05
2023-04-19T17:00:05.197Z,76.89
2023-04-19T17:02:37.900Z,76.69
2023-04-19T17:05:20.661Z,76.87
2023-04-19T17:07:52.979Z,76.89
2023-04-19T17:10:26.687Z,77.18
2023-04-19T17:12:58.279Z,76.99
2023-04-19T17:15:30.447Z,77.31
2023-04-19T17:18:02.323Z,77.65
2023-04-19T17:20:36.190Z,77.59
2023-04-19T17:23:08.216Z,77.20
2023-04-19T17:25:41.579Z,77.00
2023-04-19T17:28:22.168Z,77.06
2023-04-19T17:30:56.630Z,77.78
2023-04-19T17:33:34.291Z,78.25
2023-04-19T17:36:07.280Z,78.31
2023-04-19T17:38:56.954Z,78.20
2023-04-19T17:41:30.362Z,78.18
2023-04-19T17:44:05.190Z,77.90
2023-04-19T17:46:40.767Z,77.62
2023-04-19T17:49:14.422Z,77.30
2023-04-19T17:51:47.766Z,77.49
2023-04-19T17:54:21.463Z,77.43
2023-04-19T17:56:55.801Z,77.62
2023-04-19T17:59:29.134Z,77.92
2023-04-19T18:02:07.588Z,78.35
2023-04-19T18:04:45.199Z,78.40
2023-04-19T18:07:18.983Z,78.30
2023-04-19T18:09:52.371Z,78.65
2023-04-19T18:12:25.550Z,77.99
2023-04-19T18:15:00.830Z,77.77
2023-04-19T18:17:38.204Z,78.13
2023-04-19T18:20:16.425Z,78.15
2023-04-19T18:22:49.809Z,78.09
2023-04-19T18:25:25.529Z,78.01
2023-04-19T18:27:59.826Z,77.96
2023-04-19T18:30:37.410Z,78.16
2023-04-19T18:33:10.378Z,78.12
2023-04-19T18:35:43.517Z,77.85
2023-04-19T18:38:17.997Z,78.05
2023-04-19T18:40:51.242Z,77.94
2023-04-19T18:43:24.513Z,78.13
2023-04-19T18:46:01.706Z,78.07
2023-04-19T18:48:34.216Z,78.15
2023-04-19T18:51:10.213Z,78.46
2023-04-19T18:53:43.778Z,78.88
2023-04-19T18:56:19.410Z,78.81
2023-04-19T18:58:53.789Z,78.95
2023-04-19T19:01:28.916Z,78.94
2023-04-19T19:04:35.020Z,78.59
2023-04-19T19:07:18.303Z,78.41
2023-04-19T19:10:15.966Z,78.48
2023-04-19T19:12:55.446Z,78.46
2023-04-19T19:15:49.439Z,78.28
2023-04-19T19:18:24.480Z,78.61
2023-04-19T19:21:01.263Z,78.76
2023-04-19T19:23:42.112Z,78.95
2023-04-19T19:26:17.820Z,78.64
2023-04-19T19:28:53.700Z,78.45
2023-04-19T19:31:28.629Z,78.50
2023-04-19T19:34:14.724Z,78.39
2023-04-19T19:37:11.410Z,79.09
2023-04-19T19:39:52.217Z,78.85
2023-04-19T19:42:28.796Z,79.00
2023-04-19T19:45:03.519Z,79.33
2023-04-19T19:47:36.308Z,79.21
2023-04-19T19:52:55.798Z,79.00
2023-04-19T19:55:34.033Z,78.88
2023-04-19T20:00:48.630Z,79.05
2023-04-19T20:03:36.069Z,78.47
2023-04-19T20:07:02.959Z,78.08
2023-04-19T20:09:05.488Z,77.80
2023-04-19T20:11:47.628Z,77.71
2023-04-19T20:14:20.902Z,77.92
2023-04-19T20:16:55.340Z,77.94
2023-04-19T20:19:28.041Z,78.13
2023-04-19T20:22:02.681Z,78.53
2023-04-19T20:24:37.907Z,78.24
2023-04-19T20:27:10.593Z,78.33
2023-04-19T20:29:43.209Z,78.21
2023-04-19T20:32:16.601Z,78.35
2023-04-19T20:34:49.340Z,78.12
2023-04-19T20:37:25.347Z,78.21
2023-04-19T20:40:19.972Z,78.03
2023-04-19T20:42:56.569Z,78.05
2023-04-19T20:45:31.340Z,78.24
2023-04-19T20:48:05.587Z,78.39
2023-04-19T20:50:40.200Z,78.63
2023-04-19T20:53:13.835Z,79.29
2023-04-19T20:55:46.262Z,78.90
2023-04-19T20:58:22.108Z,78.75
2023-04-19T21:00:54.032Z,79.33
2023-04-19T21:03:26.323Z,79.54
2023-04-19T21:05:57.968Z,79.48
2023-04-19T21:08:30.085Z,79.44
2023-04-19T21:11:01.656Z,79.03
2023-04-19T21:13:34.346Z,79.56
2023-04-19T21:16:06.589Z,79.36
2023-04-19T21:18:39.140Z,79.73
2023-04-19T21:21:10.647Z,80.01
2023-04-19T21:23:42.176Z,79.98
2023-04-19T21:26:14.594Z,80.27
2023-04-19T21:28:46.476Z,79.73
2023-04-19T21:31:19.521Z,79.15
2023-04-19T21:33:51.079Z,79.00
2023-04-19T21:36:22.950Z,79.31
2023-04-19T21:38:55.655Z,78.51
2023-04-19T21:41:27.354Z,78.93
2023-04-19T21:43:59.200Z,78.39
2023-04-19T21:46:31.084Z,78.52
2023-04-19T21:49:03.189Z,78.71
2023-04-19T21:51:34.574Z,78.82
2023-04-19T21:54:06.763Z,78.59
2023-04-19T21:56:41.857Z,78.13
2023-04-19T21:59:21.638Z,78.41
2023-04-19T22:01:54.265Z,79.70
2023-04-19T22:04:26.568Z,78.97
2023-04-19T22:07:02.731Z,78.94
2023-04-19T22:09:35.709Z,79.09
2023-04-19T22:12:14.053Z,79.02
2023-04-19T22:14:46.428Z,78.91
2023-04-19T22:17:20.165Z,79.31
2023-04-19T22:19:51.988Z,78.90
2023-04-19T22:22:23.788Z,79.14
2023-04-19T22:24:58.017Z,79.03
2023-04-19T22:27:30.158Z,79.30
2023-04-19T22:30:04.587Z,79.63
2023-04-19T22:32:36.596Z,79.15
2023-04-19T22:35:11.610Z,78.77
2023-04-19T22:37:43.303Z,78.80
2023-04-19T22:40:18.499Z,79.02
2023-04-19T22:42:50.011Z,78.48
2023-04-19T22:45:22.907Z,78.56
2023-04-19T22:47:54.305Z,78.52
2023-04-19T22:50:28.696Z,78.94
2023-04-19T22:53:00.133Z,78.61
2023-04-19T22:55:31.806Z,78.58
2023-04-19T22:58:05.099Z,78.38
2023-04-19T23:00:36.824Z,78.38
2023-04-19T23:03:08.404Z,78.44
2023-04-19T23:05:40.476Z,78.57
2023-04-19T23:08:13.271Z,78.40
2023-04-19T23:10:45.536Z,78.65
2023-04-19T23:13:17.420Z,78.53
2023-04-19T23:15:48.875Z,78.34
2023-04-19T23:18:21.608Z,78.48
2023-04-19T23:20:53.235Z,78.66
2023-04-19T23:23:24.888Z,78.28
2023-04-19T23:25:56.259Z,78.05
2023-04-19T23:28:27.711Z,77.69
2023-04-19T23:30:59.167Z,77.84
2023-04-19T23:33:30.659Z,77.79
2023-04-19T23:36:05.022Z,78.60
2023-04-19T23:38:36.564Z,78.31
2023-04-19T23:41:08.149Z,78.49
2023-04-19T23:43:39.811Z,78.42
2023-04-19T23:46:15.760Z,78.40
2023-04-19T23:48:47.705Z,78.00
2023-04-19T23:51:19.157Z,77.91
2023-04-19T23:53:50.885Z,77.97
2023-04-19T23:56:22.282Z,77.73
2023-04-19T23:58:53.796Z,78.35
